Time;durP1;ratioP1;P1;durP2;ratioP2;P2;SDS_P1;SDS_P2;PMS_P1;PMS_P2;Temp;Humidity;BMP_temperature;BMP_pressure;BME280_temperature;BME280_humidity;BME280_pressure;Samples;Min_cycle;Max_cycle;Signal;HPM_P1;HPM_P2
2023/09/05 00:01:25;;;;;;;500.37;248.50;;;;;;;;;;4988727;28;20213;-68
2023/09/05 00:03:51;;;;;;;473.10;238.50;;;;;;;;;;4991570;28;20583;-69
2023/09/05 00:06:17;;;;;;;484.60;236.03;;;;;;;;;;4984679;28;20224;-68
2023/09/05 00:08:42;;;;;;;488.33;243.00;;;;;;;;;;4995506;28;20442;-68
2023/09/05 00:11:08;;;;;;;505.47;254.33;;;;;;;;;;4980189;28;20213;-69
2023/09/05 00:13:34;;;;;;;513.73;256.57;;;;;;;;;;4970418;28;20272;-68
2023/09/05 00:16:00;;;;;;;472.77;230.60;;;;;;;;;;4988033;28;20216;-69
2023/09/05 00:18:26;;;;;;;500.20;251.50;;;;;;;;;;4987832;28;20224;-68
2023/09/05 00:20:54;;;;;;;451.60;221.13;;;;;;;;;;4986486;28;20192;-69
2023/09/05 00:23:21;;;;;;;484.47;237.87;;;;;;;;;;4969273;28;20200;-68
2023/09/05 00:25:47;;;;;;;488.47;239.47;;;;;;;;;;4976662;28;20216;-69
2023/09/05 00:28:13;;;;;;;508.03;251.30;;;;;;;;;;4946434;28;20221;-69
2023/09/05 00:30:39;;;;;;;476.20;234.40;;;;;;;;;;4978663;28;20221;-69
2023/09/05 00:33:05;;;;;;;459.03;222.30;;;;;;;;;;4991223;28;20223;-68
2023/09/05 00:35:31;;;;;;;492.37;243.20;;;;;;;;;;4985067;28;20184;-68
2023/09/05 00:37:58;;;;;;;462.70;228.70;;;;;;;;;;4986392;28;20213;-68
2023/09/05 00:40:26;;;;;;;480.60;232.80;;;;;;;;;;4990649;28;20238;-68
2023/09/05 00:42:52;;;;;;;478.13;233.90;;;;;;;;;;4983221;28;20240;-69
2023/09/05 00:45:19;;;;;;;497.77;247.57;;;;;;;;;;4992560;28;20228;-68
2023/09/05 00:47:47;;;;;;;541.70;267.30;;;;;;;;;;4988602;28;20185;-68
2023/09/05 00:50:17;;;;;;;489.43;241.57;;;;;;;;;;4990599;28;20316;-69
2023/09/05 00:52:43;;;;;;;511.97;255.10;;;;;;;;;;4981420;28;20478;-68
2023/09/05 00:55:09;;;;;;;484.57;238.70;;;;;;;;;;4957016;28;20325;-68
2023/09/05 00:57:35;;;;;;;532.77;271.07;;;;;;;;;;4983789;28;20709;-68
2023/09/05 01:00:03;;;;;;;519.13;255.37;;;;;;;;;;4968523;28;20614;-69
2023/09/05 01:02:29;;;;;;;493.73;241.37;;;;;;;;;;4972311;28;20259;-68
2023/09/05 01:04:55;;;;;;;490.17;240.10;;;;;;;;;;4975160;28;20236;-68
2023/09/05 01:07:35;;;;;;;499.77;248.00;;;;;;;;;;4974451;28;20965;-69
2023/09/05 01:10:04;;;;;;;491.87;239.00;;;;;;;;;;4974983;28;20324;-69
2023/09/05 01:12:30;;;;;;;507.17;249.60;;;;;;;;;;4969466;28;20233;-68
2023/09/05 01:14:55;;;;;;;483.20;241.90;;;;;;;;;;4975467;28;20654;-68
2023/09/05 01:17:21;;;;;;;487.43;243.37;;;;;;;;;;4976510;28;20186;-68
2023/09/05 01:19:48;;;;;;;514.07;254.77;;;;;;;;;;4975493;28;20221;-68
2023/09/05 01:22:17;;;;;;;499.17;243.90;;;;;;;;;;4980184;28;20225;-68
2023/09/05 01:24:47;;;;;;;508.73;250.77;;;;;;;;;;4987666;28;20642;-68
2023/09/05 01:27:17;;;;;;;492.33;241.27;;;;;;;;;;4991000;28;20320;-68
2023/09/05 01:29:44;;;;;;;487.33;241.30;;;;;;;;;;4987812;28;20829;-68
2023/09/05 01:32:10;;;;;;;498.77;242.90;;;;;;;;;;4992952;28;20334;-68
2023/09/05 01:34:36;;;;;;;509.63;254.03;;;;;;;;;;4995432;28;20597;-69
2023/09/05 01:37:02;;;;;;;510.90;257.97;;;;;;;;;;4976713;28;20226;-69
2023/09/05 01:39:28;;;;;;;535.63;271.23;;;;;;;;;;4958471;28;20252;-68
2023/09/05 01:41:54;;;;;;;523.13;256.43;;;;;;;;;;4973997;28;20192;-68
2023/09/05 01:44:20;;;;;;;516.23;257.67;;;;;;;;;;4967470;28;20244;-68
2023/09/05 01:46:46;;;;;;;507.77;248.97;;;;;;;;;;4977351;28;20225;-69
2023/09/05 01:49:12;;;;;;;527.13;257.50;;;;;;;;;;4972775;28;20228;-68
2023/09/05 01:51:38;;;;;;;526.00;268.27;;;;;;;;;;4975255;28;20536;-68
2023/09/05 01:54:04;;;;;;;478.73;241.63;;;;;;;;;;4975086;28;20224;-68
2023/09/05 01:56:30;;;;;;;477.70;237.53;;;;;;;;;;4985400;28;20249;-69
2023/09/05 01:58:56;;;;;;;498.63;248.70;;;;;;;;;;4953882;28;20221;-68
2023/09/05 02:01:22;;;;;;;498.93;250.03;;;;;;;;;;4974670;28;20579;-68
2023/09/05 02:03:48;;;;;;;515.73;256.83;;;;;;;;;;4968915;28;20232;-68
2023/09/05 02:06:14;;;;;;;508.47;253.27;;;;;;;;;;4973063;28;20286;-69
2023/09/05 02:08:40;;;;;;;510.50;255.90;;;;;;;;;;4975591;28;20193;-68
2023/09/05 02:11:06;;;;;;;465.67;225.50;;;;;;;;;;4979527;28;20237;-69
2023/09/05 02:13:32;;;;;;;509.73;249.17;;;;;;;;;;4950635;28;20552;-69
2023/09/05 02:15:58;;;;;;;481.63;235.67;;;;;;;;;;4978185;28;20317;-69
2023/09/05 02:18:24;;;;;;;489.37;236.93;;;;;;;;;;4979618;28;20320;-68
2023/09/05 02:20:50;;;;;;;521.77;253.57;;;;;;;;;;4967910;28;20288;-68
2023/09/05 02:23:16;;;;;;;510.73;247.83;;;;;;;;;;4970225;28;20692;-68
2023/09/05 02:25:42;;;;;;;503.73;246.87;;;;;;;;;;4966745;28;20806;-69
2023/09/05 02:28:08;;;;;;;462.33;222.13;;;;;;;;;;4971521;28;20332;-68
2023/09/05 02:30:40;;;;;;;523.33;256.57;;;;;;;;;;4974367;28;20229;-68
2023/09/05 02:33:08;;;;;;;472.27;228.13;;;;;;;;;;4960232;28;20228;-68
2023/09/05 02:35:34;;;;;;;546.87;269.90;;;;;;;;;;4966787;28;20186;-68
2023/09/05 02:38:00;;;;;;;470.70;218.97;;;;;;;;;;4976404;28;20213;-68
2023/09/05 02:40:26;;;;;;;512.80;247.90;;;;;;;;;;4971345;28;20217;-68
2023/09/05 02:42:52;;;;;;;475.67;226.93;;;;;;;;;;4950580;28;20256;-68
2023/09/05 02:45:18;;;;;;;533.70;260.33;;;;;;;;;;4949466;28;20307;-68
2023/09/05 02:47:44;;;;;;;484.73;229.10;;;;;;;;;;4980181;28;20280;-68
2023/09/05 02:50:10;;;;;;;491.77;234.73;;;;;;;;;;4971635;28;20181;-68
2023/09/05 02:52:37;;;;;;;537.80;261.97;;;;;;;;;;4972687;28;20847;-68
2023/09/05 02:55:03;;;;;;;504.17;238.43;;;;;;;;;;4973287;28;20343;-68
2023/09/05 02:57:30;;;;;;;513.53;240.47;;;;;;;;;;4974201;28;20214;-68
2023/09/05 02:59:56;;;;;;;473.30;219.80;;;;;;;;;;4977139;28;20193;-68
2023/09/05 03:02:24;;;;;;;474.23;219.70;;;;;;;;;;4973334;28;20202;-68
2023/09/05 03:04:54;;;;;;;481.77;229.27;;;;;;;;;;4974117;28;20778;-68
2023/09/05 03:07:23;;;;;;;479.83;230.27;;;;;;;;;;4966403;28;20697;-67
2023/09/05 03:09:51;;;;;;;470.27;221.23;;;;;;;;;;4973229;28;20267;-68
2023/09/05 03:12:18;;;;;;;501.40;237.00;;;;;;;;;;4971717;28;21018;-69
2023/09/05 03:14:44;;;;;;;529.47;249.83;;;;;;;;;;4974493;28;20288;-68
2023/09/05 03:17:11;;;;;;;483.80;224.10;;;;;;;;;;4974323;28;20182;-68
2023/09/05 03:19:37;;;;;;;509.00;251.23;;;;;;;;;;4948589;28;20699;-68
2023/09/05 03:22:03;;;;;;;501.47;240.50;;;;;;;;;;4968178;28;20221;-68
2023/09/05 03:24:29;;;;;;;480.00;226.67;;;;;;;;;;4965139;28;20214;-68
2023/09/05 03:26:55;;;;;;;450.80;213.23;;;;;;;;;;4977623;28;20182;-69
2023/09/05 03:29:21;;;;;;;481.17;231.13;;;;;;;;;;4965102;28;20248;-68
2023/09/05 03:31:47;;;;;;;497.73;236.43;;;;;;;;;;4973472;28;20217;-68
2023/09/05 03:34:13;;;;;;;453.83;208.77;;;;;;;;;;4955870;28;20704;-68
2023/09/05 03:36:39;;;;;;;523.33;248.83;;;;;;;;;;4953233;28;20257;-68
2023/09/05 03:39:05;;;;;;;494.00;232.80;;;;;;;;;;4972174;28;20479;-68
2023/09/05 03:41:31;;;;;;;455.17;214.23;;;;;;;;;;4952757;28;20239;-68
2023/09/05 03:43:57;;;;;;;462.97;220.70;;;;;;;;;;4975425;28;20217;-68
2023/09/05 03:46:23;;;;;;;501.83;239.27;;;;;;;;;;4971858;28;20223;-68
2023/09/05 03:48:50;;;;;;;496.27;234.13;;;;;;;;;;4950568;28;20217;-69
2023/09/05 03:51:16;;;;;;;483.87;228.17;;;;;;;;;;4971858;28;20304;-69
2023/09/05 03:53:42;;;;;;;494.53;232.80;;;;;;;;;;4975097;28;20664;-68
2023/09/05 03:56:08;;;;;;;494.67;241.30;;;;;;;;;;4965546;28;20182;-69
2023/09/05 03:58:34;;;;;;;513.00;252.10;;;;;;;;;;4972775;28;20227;-68
2023/09/05 04:01:02;;;;;;;465.70;220.33;;;;;;;;;;4970975;28;20303;-69
2023/09/05 04:03:28;;;;;;;519.20;252.97;;;;;;;;;;4972699;28;20276;-69
2023/09/05 04:05:54;;;;;;;479.60;228.07;;;;;;;;;;4962816;28;20204;-68
2023/09/05 04:08:20;;;;;;;484.43;228.93;;;;;;;;;;4965696;28;20269;-69
2023/09/05 04:10:46;;;;;;;514.00;248.50;;;;;;;;;;4969487;28;20247;-68
2023/09/05 04:13:12;;;;;;;528.23;254.30;;;;;;;;;;4951300;28;20214;-68
2023/09/05 04:15:38;;;;;;;505.67;236.37;;;;;;;;;;4968254;28;20216;-68
2023/09/05 04:18:04;;;;;;;489.93;233.60;;;;;;;;;;4955560;28;20217;-70
2023/09/05 04:20:31;;;;;;;512.70;247.10;;;;;;;;;;4972692;28;20197;-68
2023/09/05 04:22:57;;;;;;;489.50;235.23;;;;;;;;;;4968498;28;20213;-68
2023/09/05 04:25:26;;;;;;;486.30;233.27;;;;;;;;;;4969826;28;20227;-68
2023/09/05 04:27:52;;;;;;;532.83;254.90;;;;;;;;;;4970067;28;20209;-68
2023/09/05 04:30:18;;;;;;;525.27;247.57;;;;;;;;;;4954245;28;20270;-68
2023/09/05 04:32:44;;;;;;;520.70;248.80;;;;;;;;;;4947147;28;20311;-68
2023/09/05 04:35:09;;;;;;;459.03;211.67;;;;;;;;;;4965551;28;20246;-69
2023/09/05 04:37:36;;;;;;;460.60;218.97;;;;;;;;;;4945964;28;20218;-68
2023/09/05 04:40:03;;;;;;;449.00;211.13;;;;;;;;;;4953153;28;20312;-69
2023/09/05 04:42:29;;;;;;;455.37;211.87;;;;;;;;;;4972270;28;20740;-68
2023/09/05 04:44:55;;;;;;;469.43;216.63;;;;;;;;;;4975967;28;20276;-69
2023/09/05 04:47:26;;;;;;;459.47;213.97;;;;;;;;;;4973274;28;20365;-69
2023/09/05 04:49:53;;;;;;;496.03;238.83;;;;;;;;;;4971896;28;20619;-70
2023/09/05 04:52:20;;;;;;;448.97;212.60;;;;;;;;;;4970179;28;20229;-69
2023/09/05 04:54:45;;;;;;;470.87;219.60;;;;;;;;;;4982339;28;20676;-69
2023/09/05 04:57:13;;;;;;;471.03;220.43;;;;;;;;;;4983079;28;20222;-69
2023/09/05 04:59:39;;;;;;;509.40;241.33;;;;;;;;;;4994548;28;20199;-69
2023/09/05 05:02:06;;;;;;;469.47;218.37;;;;;;;;;;4996660;28;20176;-69
2023/09/05 05:04:32;;;;;;;481.33;226.43;;;;;;;;;;4998067;28;20279;-69
2023/09/05 05:06:58;;;;;;;455.53;209.17;;;;;;;;;;4991457;28;20352;-69
2023/09/05 05:09:24;;;;;;;530.47;245.93;;;;;;;;;;4969252;28;20217;-69
2023/09/05 05:11:50;;;;;;;537.00;257.20;;;;;;;;;;4990025;28;20205;-69
2023/09/05 05:14:16;;;;;;;518.67;240.40;;;;;;;;;;4958768;28;20201;-68
2023/09/05 05:16:43;;;;;;;456.23;212.90;;;;;;;;;;4959941;28;20243;-67
2023/09/05 05:19:10;;;;;;;470.67;223.63;;;;;;;;;;4980253;28;20231;-66
2023/09/05 05:21:36;;;;;;;499.90;235.03;;;;;;;;;;4971755;28;20916;-66
2023/09/05 05:24:02;;;;;;;520.20;244.50;;;;;;;;;;4956039;28;20217;-66
2023/09/05 05:26:29;;;;;;;506.83;238.80;;;;;;;;;;4972907;28;20193;-66
2023/09/05 05:28:55;;;;;;;531.23;258.27;;;;;;;;;;4971741;28;21113;-66
2023/09/05 05:31:22;;;;;;;509.73;250.17;;;;;;;;;;4974782;28;20314;-66
2023/09/05 05:33:48;;;;;;;514.23;248.23;;;;;;;;;;4948653;28;20324;-66
2023/09/05 05:36:14;;;;;;;513.13;252.60;;;;;;;;;;4978355;28;20741;-66
2023/09/05 05:38:40;;;;;;;512.90;250.70;;;;;;;;;;4973896;28;20348;-66
2023/09/05 05:41:09;;;;;;;507.57;239.67;;;;;;;;;;4981050;28;20516;-66
2023/09/05 05:43:35;;;;;;;478.97;226.83;;;;;;;;;;4972103;28;20224;-66
2023/09/05 05:46:01;;;;;;;475.07;222.23;;;;;;;;;;4965830;28;20217;-65
2023/09/05 05:48:26;;;;;;;486.33;230.20;;;;;;;;;;4984056;28;20275;-65
2023/09/05 05:50:53;;;;;;;503.60;250.43;;;;;;;;;;4981538;28;20556;-66
2023/09/05 05:53:23;;;;;;;501.53;245.17;;;;;;;;;;4981830;28;20287;-66
2023/09/05 05:55:49;;;;;;;498.27;245.07;;;;;;;;;;4990865;28;20211;-66
2023/09/05 05:58:15;;;;;;;496.27;240.03;;;;;;;;;;4984928;28;20217;-68
2023/09/05 06:00:45;;;;;;;544.53;274.60;;;;;;;;;;4968103;28;20252;-68
2023/09/05 06:03:11;;;;;;;488.20;233.93;;;;;;;;;;4980894;28;20267;-68
2023/09/05 06:05:37;;;;;;;488.10;233.50;;;;;;;;;;4976975;28;20976;-68
2023/09/05 06:08:03;;;;;;;483.20;235.77;;;;;;;;;;4987426;28;20193;-68
2023/09/05 06:10:29;;;;;;;494.03;241.80;;;;;;;;;;4986344;28;20342;-65
2023/09/05 06:12:55;;;;;;;503.87;244.73;;;;;;;;;;4973053;28;20345;-65
2023/09/05 06:15:21;;;;;;;675.10;367.60;;;;;;;;;;4958945;28;22743;-64
2023/09/05 06:17:47;;;;;;;479.30;234.20;;;;;;;;;;4966768;28;21482;-64
2023/09/05 06:20:13;;;;;;;527.20;261.03;;;;;;;;;;4976855;28;20597;-65
2023/09/05 06:22:39;;;;;;;509.63;254.80;;;;;;;;;;4975055;28;20317;-65
2023/09/05 06:25:05;;;;;;;475.47;228.83;;;;;;;;;;4973645;28;20842;-65
2023/09/05 06:27:32;;;;;;;528.13;265.93;;;;;;;;;;4969708;28;20284;-62
2023/09/05 06:29:58;;;;;;;498.83;249.07;;;;;;;;;;4972116;28;20217;-63
2023/09/05 06:32:24;;;;;;;488.47;237.87;;;;;;;;;;4975192;28;20247;-65
2023/09/05 06:34:50;;;;;;;485.43;237.43;;;;;;;;;;4975128;28;20233;-60
2023/09/05 06:37:16;;;;;;;532.33;267.80;;;;;;;;;;4968561;28;20210;-62
2023/09/05 06:39:42;;;;;;;528.63;266.80;;;;;;;;;;4975893;28;20213;-64
2023/09/05 06:42:10;;;;;;;545.10;279.87;;;;;;;;;;4966735;28;20533;-63
2023/09/05 06:44:35;;;;;;;526.07;269.53;;;;;;;;;;4987186;28;20716;-63
2023/09/05 06:47:01;;;;;;;483.37;246.87;;;;;;;;;;4989373;28;20204;-64
2023/09/05 06:49:27;;;;;;;503.30;265.97;;;;;;;;;;4973958;28;20217;-62
2023/09/05 06:51:53;;;;;;;496.60;259.33;;;;;;;;;;4970216;28;20519;-63
2023/09/05 06:54:19;;;;;;;498.57;253.03;;;;;;;;;;4970296;28;20236;-63
2023/09/05 06:56:45;;;;;;;530.37;279.77;;;;;;;;;;4975051;28;20732;-63
2023/09/05 06:59:17;;;;;;;472.63;242.53;;;;;;;;;;4975287;28;20180;-63
2023/09/05 07:01:46;;;;;;;492.40;254.80;;;;;;;;;;4981058;28;20316;-62
2023/09/05 07:04:13;;;;;;;526.93;280.80;;;;;;;;;;4972634;28;20225;-62
2023/09/05 07:06:39;;;;;;;495.90;257.23;;;;;;;;;;4972140;28;20217;-62
2023/09/05 07:09:06;;;;;;;493.33;250.80;;;;;;;;;;4969860;28;20214;-63
2023/09/05 07:11:31;;;;;;;554.50;295.23;;;;;;;;;;4958930;28;20669;-62
2023/09/05 07:13:57;;;;;;;564.47;301.70;;;;;;;;;;4946628;28;20229;-62
2023/09/05 07:16:23;;;;;;;512.93;271.40;;;;;;;;;;4970704;28;20754;-62
2023/09/05 07:18:49;;;;;;;523.63;281.13;;;;;;;;;;4973042;28;20299;-63
2023/09/05 07:21:15;;;;;;;509.93;267.83;;;;;;;;;;4980916;28;20964;-62
2023/09/05 07:23:41;;;;;;;488.93;257.53;;;;;;;;;;4982218;28;20204;-63
2023/09/05 07:26:07;;;;;;;517.90;275.73;;;;;;;;;;4991199;28;20181;-63
2023/09/05 07:28:34;;;;;;;514.60;282.63;;;;;;;;;;4990476;28;20249;-62
2023/09/05 07:31:00;;;;;;;544.67;302.87;;;;;;;;;;4981272;28;20323;-63
2023/09/05 07:33:27;;;;;;;529.03;294.67;;;;;;;;;;4973394;28;20601;-62
2023/09/05 07:35:52;;;;;;;549.90;304.80;;;;;;;;;;4968131;28;20189;-62
2023/09/05 07:38:21;;;;;;;501.30;277.13;;;;;;;;;;4975101;28;20192;-62
2023/09/05 07:40:50;;;;;;;542.23;299.40;;;;;;;;;;4964246;28;20281;-62
2023/09/05 07:43:16;;;;;;;508.23;274.97;;;;;;;;;;4960324;28;20221;-63
2023/09/05 07:45:42;;;;;;;527.20;289.40;;;;;;;;;;4958587;28;20240;-61
2023/09/05 07:48:08;;;;;;;532.90;294.33;;;;;;;;;;4938029;28;20927;-63
2023/09/05 07:50:35;;;;;;;504.10;278.30;;;;;;;;;;4961314;28;20190;-61
2023/09/05 07:53:01;;;;;;;541.10;301.70;;;;;;;;;;4954330;28;20465;-62
2023/09/05 07:55:27;;;;;;;531.63;296.40;;;;;;;;;;4944220;28;20916;-62
2023/09/05 07:57:53;;;;;;;541.17;300.80;;;;;;;;;;4956083;28;20217;-63
2023/09/05 08:00:19;;;;;;;499.23;275.33;;;;;;;;;;4952969;28;20386;-61
2023/09/05 08:02:45;;;;;;;537.47;310.07;;;;;;;;;;4959571;28;20316;-63
2023/09/05 08:05:11;;;;;;;526.53;302.03;;;;;;;;;;4959542;28;20231;-61
2023/09/05 08:07:38;;;;;;;495.17;276.67;;;;;;;;;;4963561;28;20217;-62
2023/09/05 08:10:05;;;;;;;521.20;296.67;;;;;;;;;;4953985;28;20856;-62
2023/09/05 08:12:31;;;;;;;511.33;294.50;;;;;;;;;;4957654;28;20240;-62
2023/09/05 08:14:57;;;;;;;517.30;291.40;;;;;;;;;;4962587;28;20221;-62
2023/09/05 08:17:22;;;;;;;545.23;316.03;;;;;;;;;;4962892;28;20661;-62
2023/09/05 08:19:48;;;;;;;512.03;295.53;;;;;;;;;;4954652;28;20238;-62
2023/09/05 08:22:16;;;;;;;524.20;312.07;;;;;;;;;;4949540;28;20225;-61
2023/09/05 08:24:41;;;;;;;518.50;308.47;;;;;;;;;;4959257;28;20243;-61
2023/09/05 08:27:12;;;;;;;494.87;287.30;;;;;;;;;;4956296;28;20577;-62
2023/09/05 08:29:38;;;;;;;546.03;326.00;;;;;;;;;;4957305;28;20251;-62
2023/09/05 08:32:04;;;;;;;519.20;306.13;;;;;;;;;;4953321;28;21892;-62
2023/09/05 08:34:32;;;;;;;511.17;305.43;;;;;;;;;;4960007;28;20232;-62
2023/09/05 08:36:59;;;;;;;601.13;357.20;;;;;;;;;;4948303;28;20206;-64
2023/09/05 08:39:25;;;;;;;521.10;313.97;;;;;;;;;;4943275;28;20221;-64
2023/09/05 08:41:52;;;;;;;535.47;324.37;;;;;;;;;;4958428;28;20193;-63
2023/09/05 08:44:18;;;;;;;480.43;293.73;;;;;;;;;;4959745;28;20758;-63
2023/09/05 08:46:46;;;;;;;533.67;322.80;;;;;;;;;;4952093;28;20421;-63
2023/09/05 08:49:12;;;;;;;550.80;336.27;;;;;;;;;;4950838;28;20696;-63
2023/09/05 08:51:40;;;;;;;500.80;308.60;;;;;;;;;;4949096;28;20448;-63
2023/09/05 08:54:06;;;;;;;536.10;330.27;;;;;;;;;;4962093;28;20252;-61
2023/09/05 08:56:33;;;;;;;549.67;331.33;;;;;;;;;;4961447;28;20182;-61
2023/09/05 08:59:00;;;;;;;590.43;371.27;;;;;;;;;;4972083;28;20219;-60
2023/09/05 09:01:26;;;;;;;496.80;306.47;;;;;;;;;;4969883;28;20218;-61
2023/09/05 09:03:54;;;;;;;555.57;345.77;;;;;;;;;;4965690;28;20217;-61
2023/09/05 09:06:24;;;;;;;516.77;318.53;;;;;;;;;;4962788;28;20258;-61
2023/09/05 09:08:50;;;;;;;554.43;342.37;;;;;;;;;;4968944;28;20204;-61
2023/09/05 09:11:19;;;;;;;505.97;314.13;;;;;;;;;;4966751;28;20237;-61
2023/09/05 09:13:47;;;;;;;521.03;322.53;;;;;;;;;;4965682;28;20221;-60
2023/09/05 09:16:17;;;;;;;497.27;308.70;;;;;;;;;;4970043;28;20364;-60
2023/09/05 09:18:43;;;;;;;493.10;299.80;;;;;;;;;;4970658;28;20534;-61
2023/09/05 09:21:09;;;;;;;508.93;312.40;;;;;;;;;;4965093;28;21773;-61
2023/09/05 09:23:35;;;;;;;550.10;339.43;;;;;;;;;;4967191;28;20888;-60
2023/09/05 09:26:02;;;;;;;535.50;330.30;;;;;;;;;;4985826;28;20315;-61
2023/09/05 09:28:29;;;;;;;549.60;339.60;;;;;;;;;;4963580;28;20319;-61
2023/09/05 09:30:56;;;;;;;562.67;346.70;;;;;;;;;;4951774;28;20670;-61
2023/09/05 09:33:23;;;;;;;524.17;326.07;;;;;;;;;;4968816;28;20226;-61
2023/09/05 09:36:01;;;;;;;533.43;329.40;;;;;;;;;;4971030;28;20189;-61
2023/09/05 09:38:28;;;;;;;504.23;305.80;;;;;;;;;;4966535;28;20367;-61
2023/09/05 09:40:55;;;;;;;517.13;319.00;;;;;;;;;;4961823;28;20289;-61
2023/09/05 09:43:21;;;;;;;542.40;332.50;;;;;;;;;;4966919;28;20220;-61
2023/09/05 09:45:47;;;;;;;519.93;324.00;;;;;;;;;;4976964;28;20217;-62
2023/09/05 09:48:16;;;;;;;513.37;318.70;;;;;;;;;;4983872;28;20215;-60
2023/09/05 09:50:43;;;;;;;524.50;323.90;;;;;;;;;;4982733;28;20553;-60
2023/09/05 09:53:12;;;;;;;583.43;366.53;;;;;;;;;;4968587;28;20323;-60
2023/09/05 09:55:39;;;;;;;481.40;293.97;;;;;;;;;;4978492;28;20407;-61
2023/09/05 09:58:10;;;;;;;557.50;345.30;;;;;;;;;;4969796;28;20711;-61
2023/09/05 10:00:38;;;;;;;555.90;352.30;;;;;;;;;;4954402;28;20362;-61
2023/09/05 10:03:08;;;;;;;489.37;298.90;;;;;;;;;;4972807;28;20673;-61
2023/09/05 10:05:34;;;;;;;545.13;333.87;;;;;;;;;;4977075;28;20924;-60
2023/09/05 10:08:00;;;;;;;534.63;334.37;;;;;;;;;;4985489;28;20270;-60
2023/09/05 10:10:27;;;;;;;510.57;330.40;;;;;;;;;;4987371;28;20255;-61
2023/09/05 10:12:56;;;;;;;513.83;325.63;;;;;;;;;;4986762;28;20220;-61
2023/09/05 10:15:22;;;;;;;538.17;351.03;;;;;;;;;;4986390;28;20213;-61
2023/09/05 10:17:49;;;;;;;517.47;335.50;;;;;;;;;;4979130;28;20208;-61
2023/09/05 10:20:19;;;;;;;515.27;328.60;;;;;;;;;;4970417;28;20185;-61
2023/09/05 10:22:46;;;;;;;556.87;365.23;;;;;;;;;;4975407;28;20331;-60
2023/09/05 10:25:13;;;;;;;537.73;343.57;;;;;;;;;;4976027;28;20206;-61
2023/09/05 10:27:39;;;;;;;524.97;336.87;;;;;;;;;;4970110;28;20251;-61
2023/09/05 10:30:05;;;;;;;542.93;347.27;;;;;;;;;;4964947;28;20226;-61
2023/09/05 10:32:32;;;;;;;567.37;368.30;;;;;;;;;;4969961;28;20213;-61
2023/09/05 10:35:01;;;;;;;573.33;360.27;;;;;;;;;;4965043;28;20285;-63
2023/09/05 10:37:28;;;;;;;538.07;344.27;;;;;;;;;;4969797;28;20225;-61
2023/09/05 10:39:56;;;;;;;559.87;364.80;;;;;;;;;;4964120;28;20241;-60
2023/09/05 10:42:29;;;;;;;547.53;352.27;;;;;;;;;;4973168;28;20303;-59
2023/09/05 10:44:55;;;;;;;560.87;361.13;;;;;;;;;;4973310;28;20245;-58
2023/09/05 10:47:29;;;;;;;553.13;352.93;;;;;;;;;;4982597;28;20186;-58
2023/09/05 10:50:03;;;;;;;537.00;341.00;;;;;;;;;;4977849;28;20259;-60
2023/09/05 10:52:29;;;;;;;553.37;359.00;;;;;;;;;;4975056;28;20233;-61
2023/09/05 10:54:56;;;;;;;560.37;364.57;;;;;;;;;;4969293;28;20316;-59
2023/09/05 10:57:36;;;;;;;545.10;361.07;;;;;;;;;;4964138;28;20222;-59
2023/09/05 11:00:29;;;;;;;605.23;394.97;;;;;;;;;;4963607;28;20555;-60
2023/09/05 11:03:16;;;;;;;535.77;346.40;;;;;;;;;;4962640;28;20302;-60
2023/09/05 11:05:45;;;;;;;558.57;366.93;;;;;;;;;;4977126;28;20255;-60
2023/09/05 11:08:21;;;;;;;549.63;364.80;;;;;;;;;;4969793;28;20308;-58
2023/09/05 11:10:47;;;;;;;545.70;364.47;;;;;;;;;;4978347;28;20914;-59
2023/09/05 11:13:17;;;;;;;489.33;333.93;;;;;;;;;;4995988;28;20224;-60
2023/09/05 11:15:43;;;;;;;493.77;341.53;;;;;;;;;;4986867;28;20212;-59
2023/09/05 11:18:11;;;;;;;489.23;336.40;;;;;;;;;;4995889;28;20212;-60
2023/09/05 11:20:45;;;;;;;587.70;394.27;;;;;;;;;;4990401;28;20228;-59
2023/09/05 11:23:21;;;;;;;492.10;344.33;;;;;;;;;;4994836;28;20283;-60
2023/09/05 11:25:55;;;;;;;503.00;339.93;;;;;;;;;;4981828;28;20329;-59
2023/09/05 11:28:25;;;;;;;512.53;349.07;;;;;;;;;;4990097;28;20900;-59
2023/09/05 11:30:52;;;;;;;500.03;336.97;;;;;;;;;;4988271;28;20302;-58
2023/09/05 11:33:19;;;;;;;525.40;350.63;;;;;;;;;;4971616;28;20336;-58
2023/09/05 11:35:45;;;;;;;519.43;347.40;;;;;;;;;;4981913;28;20268;-58
2023/09/05 11:38:15;;;;;;;499.23;345.10;;;;;;;;;;4996865;28;20545;-58
2023/09/05 11:40:49;;;;;;;501.23;346.50;;;;;;;;;;4986778;28;20220;-59
2023/09/05 11:43:15;;;;;;;533.77;370.57;;;;;;;;;;4986704;28;20310;-60
2023/09/05 11:45:43;;;;;;;521.53;370.97;;;;;;;;;;4979493;28;21512;-59
2023/09/05 11:48:11;;;;;;;536.50;378.03;;;;;;;;;;4965040;28;21781;-60
2023/09/05 11:50:38;;;;;;;648.80;445.33;;;;;;;;;;4977789;28;20195;-57
2023/09/05 11:53:04;;;;;;;560.40;383.40;;;;;;;;;;4984499;28;20630;-60
2023/09/05 11:55:31;;;;;;;544.77;386.37;;;;;;;;;;4967732;28;20271;-58
2023/09/05 11:57:59;;;;;;;510.30;368.23;;;;;;;;;;4971320;28;20302;-59
2023/09/05 12:00:25;;;;;;;577.53;398.43;;;;;;;;;;4980738;28;20235;-59
2023/09/05 12:02:52;;;;;;;539.93;369.50;;;;;;;;;;4984713;28;20291;-61
2023/09/05 12:05:19;;;;;;;552.30;394.03;;;;;;;;;;4980702;28;20189;-62
2023/09/05 12:07:51;;;;;;;528.10;383.67;;;;;;;;;;4986436;28;20394;-62
2023/09/05 12:10:17;;;;;;;503.30;376.30;;;;;;;;;;4989548;28;20227;-62
2023/09/05 12:12:58;;;;;;;494.63;361.67;;;;;;;;;;4985862;28;20217;-61
2023/09/05 12:15:34;;;;;;;507.57;369.67;;;;;;;;;;4966384;28;20220;-62
2023/09/05 12:18:00;;;;;;;540.17;394.57;;;;;;;;;;4987556;28;20234;-62
2023/09/05 12:20:26;;;;;;;550.50;398.43;;;;;;;;;;4984222;28;20208;-61
2023/09/05 12:22:52;;;;;;;507.30;371.27;;;;;;;;;;4983641;28;21399;-61
2023/09/05 12:25:21;;;;;;;546.27;393.40;;;;;;;;;;4982047;28;20235;-62
2023/09/05 12:27:47;;;;;;;474.97;366.60;;;;;;;;;;4993434;28;20590;-62
2023/09/05 12:30:33;;;;;;;554.63;404.23;;;;;;;;;;4984422;28;20304;-62
2023/09/05 12:33:00;;;;;;;504.23;385.17;;;;;;;;;;4988216;28;20235;-62
2023/09/05 12:35:28;;;;;;;558.43;411.97;;;;;;;;;;4983478;28;20207;-62
2023/09/05 12:37:54;;;;;;;534.63;404.87;;;;;;;;;;4986292;28;20256;-61
2023/09/05 12:40:21;;;;;;;560.17;424.20;;;;;;;;;;4979575;28;20892;-62
2023/09/05 12:42:47;;;;;;;518.30;394.87;;;;;;;;;;4983901;28;20259;-62
2023/09/05 12:45:13;;;;;;;528.27;408.60;;;;;;;;;;4986821;28;20759;-62
2023/09/05 12:47:40;;;;;;;528.70;404.70;;;;;;;;;;4988316;28;20212;-62
2023/09/05 12:50:12;;;;;;;533.87;406.40;;;;;;;;;;4980021;28;20643;-62
2023/09/05 12:52:42;;;;;;;595.07;452.53;;;;;;;;;;4974627;28;21556;-62
2023/09/05 12:55:08;;;;;;;524.17;416.50;;;;;;;;;;4979284;28;20335;-61
2023/09/05 12:57:34;;;;;;;551.17;427.57;;;;;;;;;;4985375;28;20247;-62
2023/09/05 13:00:00;;;;;;;561.23;436.33;;;;;;;;;;4974746;28;20868;-62
2023/09/05 13:02:26;;;;;;;552.27;429.83;;;;;;;;;;4983231;28;20676;-65
2023/09/05 13:04:52;;;;;;;529.33;428.17;;;;;;;;;;4989020;28;20308;-64
2023/09/05 13:07:18;;;;;;;535.43;421.20;;;;;;;;;;4986639;28;20220;-63
2023/09/05 13:09:44;;;;;;;533.27;418.83;;;;;;;;;;4977544;28;20508;-61
2023/09/05 13:12:10;;;;;;;599.70;463.30;;;;;;;;;;4967961;28;20228;-61
2023/09/05 13:14:36;;;;;;;576.53;471.23;;;;;;;;;;4975259;28;20204;-61
2023/09/05 13:17:02;;;;;;;535.17;436.30;;;;;;;;;;4971537;28;20776;-62
2023/09/05 13:19:28;;;;;;;561.73;446.17;;;;;;;;;;4962547;28;20244;-62
2023/09/05 13:21:54;;;;;;;589.17;474.10;;;;;;;;;;4963081;28;20657;-61
2023/09/05 13:24:20;;;;;;;537.57;448.30;;;;;;;;;;4971459;28;20239;-61
2023/09/05 13:26:46;;;;;;;534.53;439.53;;;;;;;;;;4983392;28;20232;-62
2023/09/05 13:29:13;;;;;;;575.83;468.50;;;;;;;;;;4982845;28;20196;-61
2023/09/05 13:31:39;;;;;;;550.63;468.60;;;;;;;;;;4985362;28;20323;-61
2023/09/05 13:34:04;;;;;;;538.43;448.00;;;;;;;;;;4987927;28;20224;-62
2023/09/05 13:36:30;;;;;;;545.90;453.53;;;;;;;;;;4989262;28;20216;-61
2023/09/05 13:38:56;;;;;;;525.77;439.90;;;;;;;;;;4985709;28;21778;-61
2023/09/05 13:41:22;;;;;;;552.27;459.03;;;;;;;;;;4980825;28;20193;-61
2023/09/05 13:43:48;;;;;;;550.97;445.90;;;;;;;;;;4983342;28;20779;-61
2023/09/05 13:46:14;;;;;;;515.47;427.03;;;;;;;;;;4987179;28;20260;-61
2023/09/05 13:48:40;;;;;;;547.37;453.97;;;;;;;;;;4982637;28;20235;-62
2023/09/05 13:51:07;;;;;;;537.80;441.43;;;;;;;;;;4987448;28;20226;-61